Time;durP1;ratioP1;P1;durP2;ratioP2;P2;SDS_P1;SDS_P2;PMS_P1;PMS_P2;Temp;Humidity;BMP_temperature;BMP_pressure;BME280_temperature;BME280_humidity;BME280_pressure;Samples;Min_cycle;Max_cycle;Signal;HPM_P1;HPM_P2
2022/06/10 00:00:50;;;;;;;5.40;2.30;;;19.20;99.90;;;;;;5072504;28;20288;-73
2022/06/10 00:03:19;;;;;;;2.37;2.17;;;19.10;99.90;;;;;;5072008;28;20642;-73
2022/06/10 00:05:49;;;;;;;3.93;2.57;;;19.10;99.90;;;;;;5082782;28;20290;-74
2022/06/10 00:08:23;;;;;;;3.63;2.50;;;19.10;99.90;;;;;;5055419;28;20175;-73
2022/06/10 00:10:51;;;;;;;3.83;2.73;;;19.10;99.90;;;;;;5071580;28;20524;-72
2022/06/10 00:13:22;;;;;;;3.83;2.67;;;19.10;99.90;;;;;;5054544;28;20207;-73
2022/06/10 00:15:50;;;;;;;2.70;2.50;;;19.10;99.90;;;;;;5056591;28;20189;-74
2022/06/10 00:18:18;;;;;;;4.07;2.30;;;19.10;99.90;;;;;;5071284;28;20229;-74
2022/06/10 00:20:45;;;;;;;2.77;2.33;;;19.10;99.90;;;;;;5104695;28;20223;-73
2022/06/10 00:23:12;;;;;;;6.47;2.50;;;19.10;99.90;;;;;;5078376;28;20280;-74
2022/06/10 00:25:39;;;;;;;5.87;2.30;;;19.20;99.90;;;;;;5074102;28;20283;-75
2022/06/10 00:28:07;;;;;;;4.60;2.70;;;19.20;99.90;;;;;;5052570;28;20651;-73
2022/06/10 00:30:35;;;;;;;3.47;2.57;;;19.20;99.90;;;;;;5054570;28;20611;-72
2022/06/10 00:33:02;;;;;;;2.27;2.00;;;19.20;99.90;;;;;;5039350;28;20696;-74
2022/06/10 00:35:29;;;;;;;5.60;2.60;;;19.20;99.90;;;;;;5072492;28;20648;-72
2022/06/10 00:37:56;;;;;;;2.67;2.47;;;19.10;99.90;;;;;;5054103;28;20645;-73
2022/06/10 00:40:34;;;;;;;3.37;2.47;;;19.10;99.90;;;;;;5052097;28;20232;-72
2022/06/10 00:43:00;;;;;;;3.77;2.53;;;19.10;99.90;;;;;;5062868;28;20190;-73
2022/06/10 00:45:54;;;;;;;3.67;2.57;;;19.20;99.90;;;;;;5071963;28;20209;-74
2022/06/10 00:48:37;;;;;;;3.20;2.90;;;19.20;99.90;;;;;;5036889;28;20194;-73
2022/06/10 00:51:16;;;;;;;4.07;3.30;;;19.20;99.90;;;;;;5083547;28;20189;-73
2022/06/10 00:53:44;;;;;;;6.80;3.20;;;19.20;99.90;;;;;;5079596;28;20686;-72
2022/06/10 00:56:22;;;;;;;5.80;3.20;;;19.20;99.90;;;;;;5049648;28;20278;-73
2022/06/10 00:59:01;;;;;;;3.50;3.13;;;19.20;99.90;;;;;;5071794;28;20689;-74
2022/06/10 01:01:31;;;;;;;4.00;3.23;;;19.20;99.90;;;;;;5047883;28;20189;-74
2022/06/10 01:03:59;;;;;;;3.23;2.93;;;19.20;99.90;;;;;;5088814;28;20750;-73
2022/06/10 01:06:26;;;;;;;4.63;3.57;;;19.20;99.90;;;;;;5058340;28;20210;-72
2022/06/10 01:08:55;;;;;;;6.20;3.77;;;19.20;99.90;;;;;;5070669;28;20579;-76
2022/06/10 01:11:52;;;;;;;4.13;3.73;;;19.20;99.90;;;;;;5067162;28;20198;-74
2022/06/10 01:14:28;;;;;;;4.13;3.60;;;19.20;99.90;;;;;;5073139;28;20178;-74
2022/06/10 01:17:04;;;;;;;5.33;3.50;;;19.20;99.90;;;;;;5082108;28;20208;-75
2022/06/10 01:20:12;;;;;;;5.37;3.97;;;19.20;99.90;;;;;;5086714;28;20198;-75
2022/06/10 01:23:21;;;;;;;4.20;3.80;;;19.20;99.90;;;;;;5084048;28;20217;-74
2022/06/10 01:26:21;;;;;;;3.90;3.60;;;19.20;99.90;;;;;;5069129;28;20551;-73
2022/06/10 01:29:19;;;;;;;5.23;3.90;;;19.20;99.90;;;;;;5098121;27;20826;-73
2022/06/10 01:32:05;;;;;;;5.37;4.27;;;19.20;99.90;;;;;;5106420;27;20881;-74
2022/06/10 01:35:01;;;;;;;4.80;4.10;;;19.20;99.90;;;;;;5034579;28;20573;-74
2022/06/10 01:38:13;;;;;;;4.53;4.00;;;19.20;99.90;;;;;;5079165;28;20259;-75
2022/06/10 01:41:06;;;;;;;5.43;4.17;;;19.10;99.90;;;;;;5062498;28;20957;-73
2022/06/10 01:43:52;;;;;;;4.40;3.77;;;19.00;99.90;;;;;;5095114;28;20183;-74
2022/06/10 01:46:33;;;;;;;6.30;3.70;;;19.00;99.90;;;;;;5051159;28;20214;-73
2022/06/10 01:49:05;;;;;;;5.33;4.00;;;19.00;99.90;;;;;;5037113;28;20185;-75
2022/06/10 01:51:58;;;;;;;7.93;4.40;;;19.00;99.90;;;;;;5074097;28;20182;-73
2022/06/10 01:54:50;;;;;;;5.50;3.97;;;19.00;99.90;;;;;;5061611;28;20191;-73
2022/06/10 01:57:35;;;;;;;4.63;3.63;;;19.00;99.90;;;;;;5062806;28;20179;-75
2022/06/10 02:00:15;;;;;;;5.17;4.13;;;19.00;99.90;;;;;;5079143;28;20194;-73
2022/06/10 02:03:11;;;;;;;4.10;3.37;;;19.00;99.90;;;;;;5103166;28;20190;-73
2022/06/10 02:05:53;;;;;;;3.73;3.43;;;19.00;99.90;;;;;;5076893;28;20245;-75
2022/06/10 02:08:31;;;;;;;4.87;3.97;;;19.00;99.90;;;;;;5070503;28;20228;-74
2022/06/10 02:11:12;;;;;;;6.83;3.80;;;19.00;99.90;;;;;;5074363;28;20302;-73
2022/06/10 02:14:13;;;;;;;5.67;3.33;;;19.00;99.90;;;;;;5081954;28;20206;-74
2022/06/10 02:16:44;;;;;;;6.40;3.77;;;19.00;99.90;;;;;;5064112;28;22265;-74
2022/06/10 02:19:31;;;;;;;4.37;3.67;;;19.00;99.90;;;;;;5083779;28;20232;-73
2022/06/10 02:22:12;;;;;;;7.00;3.87;;;19.00;99.90;;;;;;5085775;28;20197;-74
2022/06/10 02:24:58;;;;;;;6.57;3.50;;;19.00;99.90;;;;;;5049016;28;20186;-73
2022/06/10 02:27:35;;;;;;;4.33;3.60;;;18.90;99.90;;;;;;5088737;28;20236;-74
2022/06/10 02:30:32;;;;;;;5.50;3.53;;;18.90;99.90;;;;;;5070506;28;20280;-73
2022/06/10 02:32:59;;;;;;;7.77;3.77;;;18.90;99.90;;;;;;5053168;28;20650;-74
2022/06/10 02:35:45;;;;;;;11.20;3.70;;;18.90;99.90;;;;;;5065432;28;20558;-74
2022/06/10 02:38:32;;;;;;;5.47;4.03;;;18.90;99.90;;;;;;5083390;28;20274;-74
2022/06/10 02:41:35;;;;;;;6.63;3.53;;;19.00;99.90;;;;;;5071214;28;20182;-74
2022/06/10 02:44:59;;;;;;;3.87;3.40;;;19.00;99.90;;;;;;5072924;28;20189;-73
2022/06/10 02:47:49;;;;;;;7.13;3.63;;;19.00;99.90;;;;;;5031870;28;20213;-75
2022/06/10 02:50:17;;;;;;;8.43;3.73;;;19.00;99.90;;;;;;5095023;28;20354;-74
2022/06/10 02:52:46;;;;;;;4.03;3.40;;;19.00;99.90;;;;;;5057697;28;20197;-75
2022/06/10 02:55:24;;;;;;;6.40;3.43;;;19.00;99.90;;;;;;5073951;28;20257;-75
2022/06/10 03:01:13;;;;;;;6.17;3.30;;;19.10;99.90;;;;;;5056099;28;20195;-72
2022/06/10 03:04:05;;;;;;;7.73;3.50;;;19.10;99.90;;;;;;5088863;28;20635;-75
2022/06/10 03:07:06;;;;;;;5.70;3.83;;;19.10;99.90;;;;;;5072563;28;20209;-73
2022/06/10 03:09:50;;;;;;;4.20;3.00;;;19.10;99.90;;;;;;5104406;28;20184;-74
2022/06/10 03:12:50;;;;;;;3.93;3.20;;;19.10;99.90;;;;;;5091073;28;20197;-73
2022/06/10 03:15:38;;;;;;;8.53;3.30;;;19.10;99.90;;;;;;5095149;28;20182;-74
2022/06/10 03:18:52;;;;;;;5.83;3.13;;;19.20;99.90;;;;;;5088515;28;20270;-74
2022/06/10 03:21:55;;;;;;;4.63;3.23;;;19.20;99.90;;;;;;5056732;28;20281;-74
2022/06/10 03:24:45;;;;;;;5.03;3.50;;;19.20;99.90;;;;;;5068835;28;20677;-75
2022/06/10 03:27:37;;;;;;;5.43;3.27;;;19.20;99.90;;;;;;5070042;28;20254;-74
2022/06/10 03:30:17;;;;;;;4.63;3.47;;;19.20;99.90;;;;;;5072614;28;20236;-74
2022/06/10 03:33:17;;;;;;;6.37;3.40;;;19.10;99.90;;;;;;5072982;28;20179;-74
2022/06/10 03:36:08;;;;;;;4.63;2.93;;;19.10;99.90;;;;;;5081240;28;20284;-73
2022/06/10 03:38:42;;;;;;;4.10;3.50;;;19.20;99.90;;;;;;5073166;28;20193;-73
2022/06/10 03:41:22;;;;;;;5.63;3.57;;;19.10;99.90;;;;;;5072646;28;20325;-73
2022/06/10 03:43:53;;;;;;;6.03;3.57;;;19.10;99.90;;;;;;5056909;28;20647;-73
2022/06/10 03:46:24;;;;;;;7.27;3.57;;;19.10;99.90;;;;;;5073816;28;20194;-74
2022/06/10 03:48:53;;;;;;;3.83;3.30;;;19.10;99.90;;;;;;5091691;28;20216;-73
2022/06/10 03:51:21;;;;;;;7.57;3.90;;;19.10;99.90;;;;;;5072781;28;20224;-74
2022/06/10 03:53:51;;;;;;;4.43;3.60;;;19.20;99.90;;;;;;5052506;28;20313;-72
2022/06/10 03:56:23;;;;;;;4.70;3.87;;;19.20;99.90;;;;;;5074269;28;20184;-72
2022/06/10 03:58:50;;;;;;;4.53;3.80;;;19.20;99.90;;;;;;5070466;28;22097;-72
2022/06/10 04:01:17;;;;;;;6.73;3.67;;;19.20;99.90;;;;;;5071434;28;21079;-72
2022/06/10 04:03:43;;;;;;;4.80;3.43;;;19.20;99.90;;;;;;5074040;28;20190;-73
2022/06/10 04:06:10;;;;;;;4.97;3.30;;;19.20;99.90;;;;;;5091510;28;20210;-73
2022/06/10 04:08:36;;;;;;;4.73;3.53;;;19.30;99.90;;;;;;5072834;28;20623;-72
2022/06/10 04:11:03;;;;;;;6.93;3.77;;;19.30;99.90;;;;;;5088410;28;20289;-73
2022/06/10 04:13:29;;;;;;;5.13;3.60;;;19.30;99.90;;;;;;5069799;28;20210;-73
2022/06/10 04:15:55;;;;;;;8.10;3.40;;;19.40;99.90;;;;;;5056790;28;20211;-72
2022/06/10 04:18:22;;;;;;;6.07;3.40;;;19.40;99.90;;;;;;5052224;28;20288;-72
2022/06/10 04:20:48;;;;;;;6.13;3.20;;;19.50;99.90;;;;;;5050316;28;20189;-73
2022/06/10 04:23:15;;;;;;;4.63;3.20;;;19.50;99.90;;;;;;5081150;28;20190;-73
2022/06/10 04:25:44;;;;;;;3.93;2.73;;;19.60;99.90;;;;;;5083805;28;20594;-73
2022/06/10 04:28:14;;;;;;;6.43;2.87;;;19.60;99.90;;;;;;5062790;28;20644;-72
2022/06/10 04:30:48;;;;;;;8.10;2.90;;;19.70;99.90;;;;;;5055484;28;20198;-73
2022/06/10 04:33:15;;;;;;;4.20;2.90;;;19.80;99.90;;;;;;5051193;28;20191;-72
2022/06/10 04:35:45;;;;;;;3.77;2.90;;;19.80;99.90;;;;;;5051944;28;20197;-73
2022/06/10 04:38:18;;;;;;;4.47;2.97;;;19.90;99.90;;;;;;5055531;28;20194;-73
2022/06/10 04:40:46;;;;;;;5.87;3.60;;;19.90;99.90;;;;;;5073434;28;20292;-72
2022/06/10 04:43:16;;;;;;;3.93;3.23;;;20.00;99.90;;;;;;5085046;28;20191;-73
2022/06/10 04:45:52;;;;;;;4.03;3.37;;;20.00;99.90;;;;;;5073556;28;20221;-72
2022/06/10 04:48:19;;;;;;;5.37;3.70;;;20.00;99.90;;;;;;5078860;28;20200;-72
2022/06/10 04:50:50;;;;;;;5.43;3.20;;;20.10;99.90;;;;;;5080878;28;20213;-73
2022/06/10 04:53:17;;;;;;;3.87;3.33;;;20.20;99.90;;;;;;5055897;28;20289;-73
2022/06/10 04:55:43;;;;;;;6.43;3.20;;;20.20;99.90;;;;;;5071589;28;20213;-73
2022/06/10 04:58:11;;;;;;;4.73;3.40;;;20.20;99.90;;;;;;5068100;28;20971;-72
2022/06/10 05:00:42;;;;;;;7.77;3.50;;;20.30;99.90;;;;;;5052197;28;20492;-73
2022/06/10 05:03:13;;;;;;;4.53;3.30;;;20.40;99.90;;;;;;5065859;28;20205;-74
2022/06/10 05:05:42;;;;;;;4.33;3.33;;;20.50;99.90;;;;;;5067719;28;20213;-73
2022/06/10 05:08:14;;;;;;;5.90;3.33;;;20.50;99.90;;;;;;5071388;28;20182;-73
2022/06/10 05:10:41;;;;;;;3.60;3.00;;;20.60;99.90;;;;;;5069956;28;20190;-73
2022/06/10 05:13:08;;;;;;;5.37;3.20;;;20.60;99.90;;;;;;5097704;28;20228;-73
2022/06/10 05:15:34;;;;;;;3.23;2.90;;;20.70;99.90;;;;;;5089310;28;20201;-73
2022/06/10 05:18:01;;;;;;;3.73;2.67;;;20.80;99.90;;;;;;5069495;28;20197;-73
2022/06/10 05:20:37;;;;;;;7.13;3.23;;;20.80;99.90;;;;;;5083572;28;20190;-73
2022/06/10 05:23:04;;;;;;;4.23;2.77;;;20.80;99.90;;;;;;5081742;28;20212;-73
2022/06/10 05:25:32;;;;;;;4.60;2.80;;;20.90;99.90;;;;;;5053855;28;20233;-73
2022/06/10 05:27:59;;;;;;;5.97;2.90;;;21.00;99.90;;;;;;5093009;28;20210;-74
2022/06/10 05:30:30;;;;;;;3.13;2.30;;;21.10;99.90;;;;;;5054677;28;20194;-74
2022/06/10 05:32:59;;;;;;;6.50;2.80;;;21.20;99.90;;;;;;5052565;28;20812;-73
2022/06/10 05:35:27;;;;;;;5.03;2.53;;;21.30;99.90;;;;;;5068045;28;20235;-72
2022/06/10 05:37:59;;;;;;;5.23;2.37;;;21.40;99.90;;;;;;5074709;28;20830;-73
2022/06/10 05:40:29;;;;;;;3.67;2.33;;;21.50;99.90;;;;;;5071225;28;20271;-74
2022/06/10 05:42:56;;;;;;;8.10;2.70;;;21.50;99.90;;;;;;5069062;28;20347;-74
2022/06/10 05:45:25;;;;;;;5.47;2.20;;;21.60;99.90;;;;;;5088464;28;20932;-74
2022/06/10 05:48:00;;;;;;;5.43;2.67;;;21.60;99.90;;;;;;5085949;28;20692;-73
2022/06/10 05:50:37;;;;;;;5.50;2.63;;;21.70;99.90;;;;;;5085780;28;20209;-73
2022/06/10 05:53:07;;;;;;;4.57;2.10;;;21.90;99.90;;;;;;5088437;28;20179;-72
2022/06/10 05:55:35;;;;;;;2.92;2.13;;;22.00;99.90;;;;;;5055599;28;20252;-73
2022/06/10 05:58:02;;;;;;;2.28;2.03;;;22.00;99.90;;;;;;5091036;28;20214;-73
2022/06/10 06:00:32;;;;;;;3.00;2.13;;;22.10;99.90;;;;;;5070761;28;20257;-72
2022/06/10 06:02:59;;;;;;;7.03;2.50;;;22.20;99.90;;;;;;5078423;28;20642;-73
2022/06/10 06:05:28;;;;;;;4.50;2.47;;;22.30;99.90;;;;;;5088694;28;20215;-73
2022/06/10 06:07:55;;;;;;;6.68;2.30;;;22.40;99.90;;;;;;5047394;28;20189;-73
2022/06/10 06:10:26;;;;;;;2.72;2.10;;;22.50;99.90;;;;;;5085308;28;20186;-72
2022/06/10 06:12:57;;;;;;;7.63;2.60;;;22.60;99.90;;;;;;5090238;28;20280;-74
2022/06/10 06:15:25;;;;;;;3.17;2.22;;;22.70;99.90;;;;;;5060983;28;20276;-74
2022/06/10 06:17:52;;;;;;;4.87;2.30;;;22.70;99.90;;;;;;5084007;28;20565;-73
2022/06/10 06:20:23;;;;;;;4.45;2.67;;;22.80;99.90;;;;;;5070215;28;20276;-73
2022/06/10 06:22:49;;;;;;;3.53;2.30;;;22.90;99.90;;;;;;5092055;28;20279;-74
2022/06/10 06:25:19;;;;;;;3.60;2.35;;;22.90;99.90;;;;;;5085225;28;20212;-73
2022/06/10 06:27:48;;;;;;;3.10;2.30;;;23.10;99.90;;;;;;5085187;28;20286;-74
2022/06/10 06:30:31;;;;;;;3.08;2.40;;;23.20;99.90;;;;;;5083446;28;20193;-74
2022/06/10 06:33:04;;;;;;;4.45;2.47;;;23.30;99.90;;;;;;5053955;28;20177;-76
2022/06/10 06:35:37;;;;;;;3.83;2.20;;;23.20;99.90;;;;;;5095048;28;20242;-73
2022/06/10 06:38:04;;;;;;;4.65;2.35;;;23.30;99.90;;;;;;5050970;28;20288;-74
2022/06/10 06:40:32;;;;;;;3.05;2.17;;;23.50;99.90;;;;;;5059791;28;20218;-74
2022/06/10 06:42:58;;;;;;;4.97;2.30;;;23.70;99.90;;;;;;5073436;28;20182;-74
2022/06/10 06:45:25;;;;;;;7.90;2.30;;;23.70;99.90;;;;;;5087324;28;20548;-72
2022/06/10 06:47:53;;;;;;;4.95;2.17;;;23.90;99.90;;;;;;5089644;28;20555;-72
2022/06/10 06:50:25;;;;;;;3.97;2.38;;;23.90;99.90;;;;;;5069626;28;20182;-73
2022/06/10 06:52:56;;;;;;;5.18;2.20;;;23.80;99.90;;;;;;5068712;28;20182;-73
2022/06/10 06:55:22;;;;;;;2.92;2.28;;;23.90;99.90;;;;;;5068918;28;20245;-73
2022/06/10 06:57:49;;;;;;;4.10;2.30;;;23.90;99.90;;;;;;5053585;28;20217;-73
2022/06/10 07:00:18;;;;;;;2.88;2.08;;;24.10;99.90;;;;;;5070051;28;20190;-73
2022/06/10 07:02:45;;;;;;;4.07;2.20;;;24.10;99.90;;;;;;5051886;28;20650;-73
2022/06/10 07:05:14;;;;;;;5.70;2.30;;;24.10;99.90;;;;;;5100533;28;20980;-73
2022/06/10 07:07:42;;;;;;;3.83;2.10;;;24.20;99.90;;;;;;5066932;28;20627;-73
2022/06/10 07:10:15;;;;;;;4.22;2.20;;;24.30;99.90;;;;;;5061666;28;20186;-74
2022/06/10 07:12:42;;;;;;;4.68;2.40;;;24.30;99.90;;;;;;5088197;28;20206;-73
2022/06/10 07:15:13;;;;;;;5.85;2.33;;;24.30;99.90;;;;;;5050164;28;20182;-73
2022/06/10 07:17:44;;;;;;;4.95;2.30;;;24.40;99.90;;;;;;5080147;28;20197;-73
2022/06/10 07:20:21;;;;;;;3.47;2.13;;;24.50;99.90;;;;;;5066373;28;20688;-73
2022/06/10 07:22:48;;;;;;;4.38;2.55;;;24.60;99.90;;;;;;5071252;28;20621;-74
2022/06/10 07:25:14;;;;;;;6.03;2.40;;;24.80;99.90;;;;;;5084500;28;20339;-73
2022/06/10 07:27:43;;;;;;;6.03;2.22;;;24.90;99.90;;;;;;5070425;28;20271;-73
2022/06/10 07:30:15;;;;;;;4.75;2.47;;;25.00;99.90;;;;;;5075903;28;20658;-74
2022/06/10 07:32:43;;;;;;;4.70;2.13;;;25.10;99.90;;;;;;5085611;28;20221;-73
2022/06/10 07:35:10;;;;;;;6.20;2.20;;;25.10;99.90;;;;;;5069140;28;20174;-73
2022/06/10 07:37:37;;;;;;;4.95;2.45;;;25.30;99.90;;;;;;5067462;28;20190;-73
2022/06/10 07:40:05;;;;;;;5.13;2.45;;;25.40;99.90;;;;;;5083776;28;20178;-73
2022/06/10 07:42:34;;;;;;;4.68;2.60;;;25.60;99.90;;;;;;5064873;28;20194;-73
2022/06/10 07:45:04;;;;;;;7.28;2.40;;;25.70;99.90;;;;;;5093115;28;20339;-73
2022/06/10 07:47:30;;;;;;;6.13;2.60;;;25.60;99.90;;;;;;5052456;28;20189;-74
2022/06/10 07:49:57;;;;;;;11.43;2.40;;;25.70;99.90;;;;;;5089632;28;20273;-73
2022/06/10 07:52:25;;;;;;;3.15;2.08;;;25.90;99.90;;;;;;5056155;28;20185;-72
2022/06/10 07:54:51;;;;;;;4.57;2.53;;;25.80;99.90;;;;;;5095538;28;20185;-71
2022/06/10 07:57:17;;;;;;;4.25;2.13;;;25.80;99.90;;;;;;5077735;28;20669;-71
2022/06/10 07:59:45;;;;;;;7.28;2.22;;;26.00;99.90;;;;;;5072192;28;20194;-71
2022/06/10 08:02:11;;;;;;;5.75;2.38;;;26.10;99.90;;;;;;5066422;28;20198;-70
2022/06/10 08:04:38;;;;;;;4.22;2.28;;;26.10;99.90;;;;;;5072431;28;20701;-74
2022/06/10 08:07:04;;;;;;;7.05;2.50;;;26.20;99.90;;;;;;5072049;28;20210;-72
2022/06/10 08:09:31;;;;;;;4.53;2.30;;;26.20;99.90;;;;;;5082462;28;20689;-72
2022/06/10 08:11:57;;;;;;;6.15;2.30;;;26.30;99.90;;;;;;5077861;28;20231;-71
2022/06/10 08:14:23;;;;;;;6.90;2.60;;;26.40;99.90;;;;;;5085466;28;20186;-71
2022/06/10 08:16:53;;;;;;;6.80;2.20;;;26.50;99.90;;;;;;5072480;28;20217;-71
2022/06/10 08:19:19;;;;;;;5.20;2.25;;;26.50;99.90;;;;;;5073351;28;20526;-71
2022/06/10 08:24:31;;;;;;;5.88;2.17;;;26.60;99.90;;;;;;5090524;28;20650;-73
2022/06/10 08:26:57;;;;;;;5.22;2.00;;;26.70;99.90;;;;;;5075923;28;20320;-74
2022/06/10 08:29:24;;;;;;;5.15;2.20;;;26.80;99.90;;;;;;5079319;28;20197;-74
2022/06/10 08:31:50;;;;;;;5.97;2.08;;;26.80;99.90;;;;;;5081752;28;20214;-72
2022/06/10 08:34:17;;;;;;;7.35;2.33;;;26.80;99.90;;;;;;5068152;28;20253;-71
2022/06/10 08:36:43;;;;;;;3.00;2.05;;;26.90;99.90;;;;;;5080689;28;20183;-72
2022/06/10 08:39:11;;;;;;;6.95;2.63;;;27.00;99.90;;;;;;5071710;28;20185;-72
2022/06/10 08:42:11;;;;;;;4.90;2.17;;;27.00;99.90;;;;;;5077728;28;20193;-71
2022/06/10 08:44:54;;;;;;;9.65;2.25;;;27.10;99.90;;;;;;5083738;28;20561;-71
2022/06/10 08:48:04;;;;;;;5.72;2.05;;;27.10;99.90;;;;;;5069564;28;20278;-72
2022/06/10 08:51:00;;;;;;;5.88;2.35;;;27.00;99.90;;;;;;5049976;28;20187;-72
2022/06/10 08:54:16;;;;;;;4.05;2.45;;;27.20;99.90;;;;;;5073706;28;20205;-73
2022/06/10 08:56:52;;;;;;;3.30;2.10;;;27.50;99.90;;;;;;5064889;28;20449;-73
2022/06/10 08:59:30;;;;;;;11.52;2.53;;;27.40;99.90;;;;;;5071072;28;20283;-73
2022/06/10 09:02:22;;;;;;;3.53;2.05;;;27.50;99.90;;;;;;5065047;28;20193;-75
2022/06/10 09:05:12;;;;;;;7.38;2.20;;;27.60;99.90;;;;;;5066450;28;20214;-74
2022/06/10 09:07:58;;;;;;;3.13;1.77;;;27.60;99.90;;;;;;5071150;28;20191;-74
2022/06/10 09:10:57;;;;;;;4.60;2.13;;;27.70;99.90;;;;;;5082893;28;20192;-73
2022/06/10 09:14:20;;;;;;;4.78;2.03;;;27.80;99.90;;;;;;5084513;28;20214;-74
2022/06/10 09:17:18;;;;;;;2.85;1.90;;;27.90;99.90;;;;;;5005983;28;20184;-73
2022/06/10 09:20:32;;;;;;;4.32;2.00;;;28.10;99.90;;;;;;5011338;28;20203;-74
2022/06/10 09:23:13;;;;;;;5.13;2.03;;;28.10;99.90;;;;;;5043834;28;20228;-74
2022/06/10 09:25:45;;;;;;;8.55;2.30;;;28.10;99.90;;;;;;5076168;28;20237;-74
2022/06/10 09:28:12;;;;;;;5.55;2.20;;;28.20;99.90;;;;;;5072820;28;20198;-74
2022/06/10 09:31:03;;;;;;;8.07;2.15;;;28.30;99.90;;;;;;5065388;28;20197;-74
2022/06/10 09:33:42;;;;;;;4.05;1.75;;;28.30;99.90;;;;;;5096435;28;20277;-75
2022/06/10 09:36:55;;;;;;;5.03;2.10;;;28.30;99.90;;;;;;5061217;28;20185;-74
2022/06/10 09:43:07;;;;;;;4.85;1.92;;;28.60;99.90;;;;;;5071740;28;20198;-74
2022/06/10 09:45:58;;;;;;;8.82;1.88;;;28.50;99.90;;;;;;5063049;28;20700;-75
2022/06/10 09:49:04;;;;;;;8.70;2.13;;;28.70;99.90;;;;;;5063602;28;20191;-73
2022/06/10 09:52:07;;;;;;;5.40;2.10;;;28.70;99.90;;;;;;5070312;28;20669;-74
2022/06/10 09:54:59;;;;;;;7.00;2.30;;;28.60;99.90;;;;;;5045847;28;20189;-74
2022/06/10 09:58:12;;;;;;;6.13;2.15;;;28.60;99.90;;;;;;5067836;28;20189;-73
2022/06/10 10:01:25;;;;;;;8.52;2.10;;;28.80;99.90;;;;;;5062302;28;20198;-73
2022/06/10 10:04:25;;;;;;;4.75;1.85;;;28.80;99.90;;;;;;5076499;28;20197;-74
2022/06/10 10:07:12;;;;;;;4.90;1.90;;;28.80;99.90;;;;;;5059257;28;20215;-73
2022/06/10 10:10:10;;;;;;;6.25;2.17;;;29.10;99.90;;;;;;5069686;28;20189;-72
2022/06/10 10:13:00;;;;;;;9.27;2.53;;;29.10;99.90;;;;;;5085473;28;20243;-74
2022/06/10 10:15:39;;;;;;;4.28;1.77;;;29.00;99.90;;;;;;5054765;28;20198;-73
2022/06/10 10:18:34;;;;;;;6.60;1.60;;;29.10;99.90;;;;;;5089517;28;20190;-74
2022/06/10 10:21:34;;;;;;;6.72;1.90;;;29.00;99.90;;;;;;5041756;28;20192;-74
2022/06/10 10:24:01;;;;;;;3.80;1.83;;;29.10;99.90;;;;;;5051061;28;20981;-74
2022/06/10 10:26:37;;;;;;;3.63;1.60;;;29.30;99.90;;;;;;5094155;28;20551;-74
2022/06/10 10:29:29;;;;;;;6.60;2.00;;;29.40;99.90;;;;;;5068984;28;20268;-73
2022/06/10 10:32:19;;;;;;;4.10;1.88;;;29.30;99.90;;;;;;5084885;28;20225;-73
2022/06/10 10:34:57;;;;;;;2.97;1.75;;;29.40;99.90;;;;;;5081167;28;20231;-73
2022/06/10 10:37:30;;;;;;;7.22;2.00;;;29.30;99.90;;;;;;5089657;28;20193;-73
2022/06/10 10:40:19;;;;;;;10.23;1.90;;;29.00;99.90;;;;;;5049494;28;20201;-73
2022/06/10 10:42:51;;;;;;;4.75;1.77;;;29.10;99.90;;;;;;5068436;28;20196;-72
2022/06/10 10:45:34;;;;;;;8.43;2.50;;;29.10;99.90;;;;;;5077332;28;20635;-73
2022/06/10 10:48:20;;;;;;;11.45;2.08;;;29.10;99.90;;;;;;5067194;28;20178;-73
2022/06/10 10:51:05;;;;;;;5.90;1.85;;;29.10;99.90;;;;;;5046202;28;20186;-73
2022/06/10 10:54:26;;;;;;;5.43;1.80;;;29.10;99.90;;;;;;5064838;28;20630;-74
2022/06/10 10:56:55;;;;;;;6.68;2.20;;;29.20;99.90;;;;;;5062494;28;20212;-73
2022/06/10 10:59:42;;;;;;;8.70;1.88;;;29.20;99.90;;;;;;5068377;28;20174;-73
2022/06/10 11:02:48;;;;;;;6.68;2.10;;;29.10;99.90;;;;;;5076846;28;20192;-73
2022/06/10 11:05:31;;;;;;;5.15;1.92;;;29.00;99.90;;;;;;5011634;28;20194;-72
2022/06/10 11:08:17;;;;;;;4.65;2.00;;;29.00;99.90;;;;;;5073843;28;20275;-74
2022/06/10 11:11:14;;;;;;;7.03;2.08;;;29.10;99.90;;;;;;5087701;28;20190;-72
2022/06/10 11:13:59;;;;;;;3.63;1.88;;;29.00;99.90;;;;;;5050453;28;20194;-73
2022/06/10 11:16:29;;;;;;;3.88;1.90;;;28.90;99.90;;;;;;5050669;28;20201;-73
2022/06/10 11:19:17;;;;;;;4.50;1.70;;;28.90;99.90;;;;;;5051746;28;20186;-73
2022/06/10 11:22:19;;;;;;;6.80;2.20;;;29.00;99.90;;;;;;5074875;28;20186;-72
2022/06/10 11:25:22;;;;;;;2.80;1.70;;;28.90;99.90;;;;;;5065131;28;20248;-73
2022/06/10 11:27:48;;;;;;;8.35;1.80;;;28.90;99.90;;;;;;5083298;28;20189;-73
2022/06/10 11:30:19;;;;;;;9.63;2.05;;;28.90;99.90;;;;;;5068349;28;20561;-73
2022/06/10 11:32:48;;;;;;;4.65;2.10;;;28.90;99.90;;;;;;5087345;28;20194;-72
2022/06/10 11:35:33;;;;;;;3.88;2.00;;;28.90;99.90;;;;;;5064309;28;20589;-72
2022/06/10 11:38:03;;;;;;;7.03;2.40;;;28.90;99.90;;;;;;5043459;28;20228;-72
2022/06/10 11:40:47;;;;;;;6.25;2.00;;;28.80;99.90;;;;;;5089463;28;20185;-73
2022/06/10 11:43:19;;;;;;;6.55;2.10;;;28.90;99.90;;;;;;5094730;28;20190;-74
2022/06/10 11:46:07;;;;;;;5.30;2.10;;;28.90;99.90;;;;;;5085758;28;20210;-73
2022/06/10 11:49:11;;;;;;;6.93;1.98;;;28.90;99.90;;;;;;5054925;28;20201;-75
2022/06/10 11:51:50;;;;;;;4.88;1.70;;;29.00;99.90;;;;;;5069917;28;20196;-73
2022/06/10 11:54:26;;;;;;;4.18;1.80;;;29.10;99.90;;;;;;5059811;28;20209;-74
2022/06/10 12:00:27;;;;;;;4.05;2.15;;;29.10;99.90;;;;;;5003886;28;20220;-73
2022/06/10 12:03:17;;;;;;;3.83;1.90;;;29.00;99.90;;;;;;5021381;28;20200;-73
2022/06/10 12:06:27;;;;;;;5.55;2.00;;;29.10;99.90;;;;;;5047597;28;20304;-73
2022/06/10 12:09:19;;;;;;;7.53;2.08;;;29.00;99.90;;;;;;5070980;28;20190;-73
2022/06/10 12:11:52;;;;;;;3.30;1.63;;;28.90;99.90;;;;;;5076613;28;20900;-72
2022/06/10 12:14:51;;;;;;;6.25;1.75;;;28.90;99.90;;;;;;5096990;28;20190;-72
2022/06/10 12:17:42;;;;;;;3.22;1.85;;;28.80;99.90;;;;;;5075903;28;20288;-72
2022/06/10 12:20:43;;;;;;;2.92;1.90;;;28.90;99.90;;;;;;5089978;28;20220;-72
2022/06/10 12:23:35;;;;;;;5.63;2.00;;;28.90;99.90;;;;;;5090292;28;20235;-71
2022/06/10 12:26:26;;;;;;;5.40;1.88;;;28.90;99.90;;;;;;5047142;28;20678;-72
2022/06/10 12:29:53;;;;;;;3.55;1.75;;;28.80;99.90;;;;;;5064865;28;20259;-72
2022/06/10 12:32:33;;;;;;;4.32;1.63;;;28.60;99.90;;;;;;5051280;28;20215;-72
2022/06/10 12:35:28;;;;;;;3.65;2.20;;;28.60;99.90;;;;;;5076146;28;20651;-72
2022/06/10 12:38:25;;;;;;;7.35;2.05;;;28.70;99.90;;;;;;5080070;28;20229;-73
2022/06/10 12:41:45;;;;;;;7.97;1.88;;;28.60;99.90;;;;;;5078165;28;20186;-73
2022/06/10 12:44:24;;;;;;;8.98;2.35;;;28.60;99.90;;;;;;5071415;28;20210;-73
2022/06/10 12:46:59;;;;;;;3.47;1.92;;;28.60;99.90;;;;;;5067735;28;20214;-73
2022/06/10 12:49:47;;;;;;;2.92;1.67;;;28.50;99.90;;;;;;5082381;28;20197;-73
2022/06/10 12:52:32;;;;;;;3.72;1.90;;;28.50;99.90;;;;;;5099254;28;20264;-73
2022/06/10 12:55:29;;;;;;;4.75;1.70;;;28.60;99.90;;;;;;5086773;28;20343;-72
2022/06/10 12:57:56;;;;;;;6.85;1.92;;;28.60;99.90;;;;;;5064329;28;20229;-72
2022/06/10 13:00:22;;;;;;;5.47;2.00;;;28.60;99.90;;;;;;5047539;28;20217;-72
2022/06/10 13:03:13;;;;;;;10.85;2.05;;;28.60;99.90;;;;;;5087033;28;20248;-72
2022/06/10 13:05:40;;;;;;;4.20;1.92;;;28.60;99.90;;;;;;5072394;28;20201;-72
2022/06/10 13:08:41;;;;;;;4.55;1.80;;;28.50;99.90;;;;;;5065545;28;20185;-72
2022/06/10 13:11:11;;;;;;;4.72;1.75;;;28.50;99.90;;;;;;5076121;28;20215;-72
2022/06/10 13:13:39;;;;;;;4.47;1.70;;;28.30;99.90;;;;;;5063841;28;20630;-72
2022/06/10 13:16:47;;;;;;;5.05;2.10;;;28.30;99.90;;;;;;5069254;28;20222;-72
2022/06/10 13:20:02;;;;;;;7.03;1.90;;;28.20;99.90;;;;;;5078906;28;20273;-72
2022/06/10 13:22:39;;;;;;;5.38;2.13;;;28.10;99.90;;;;;;5080316;28;20198;-72
2022/06/10 13:25:08;;;;;;;4.22;2.13;;;28.10;99.90;;;;;;5065986;28;20217;-73
2022/06/10 13:27:47;;;;;;;11.13;2.70;;;28.10;99.90;;;;;;5081309;28;20697;-73
2022/06/10 13:30:20;;;;;;;4.65;1.90;;;28.10;99.90;;;;;;5085543;28;20202;-72
2022/06/10 13:33:10;;;;;;;9.40;1.80;;;28.00;99.90;;;;;;5082472;28;20190;-73
2022/06/10 13:35:53;;;;;;;6.28;2.17;;;28.00;99.90;;;;;;5064427;28;20276;-74
2022/06/10 13:38:33;;;;;;;5.32;2.00;;;27.90;99.90;;;;;;5091137;28;20649;-74
2022/06/10 13:44:05;;;;;;;5.15;1.90;;;27.90;99.90;;;;;;5076039;28;20190;-73
2022/06/10 13:46:33;;;;;;;7.25;2.00;;;27.90;99.90;;;;;;5087853;28;20209;-74
2022/06/10 13:52:34;;;;;;;15.98;2.30;;;27.90;99.90;;;;;;5096108;28;20185;-73
2022/06/10 13:55:26;;;;;;;9.00;2.17;;;27.90;99.90;;;;;;5090725;28;20175;-73
2022/06/10 13:58:15;;;;;;;16.40;2.13;;;27.80;99.90;;;;;;5076410;28;20186;-72
2022/06/10 14:00:54;;;;;;;4.65;1.95;;;27.90;99.90;;;;;;5068577;28;20198;-72
2022/06/10 14:03:38;;;;;;;30.30;3.97;;;27.90;99.90;;;;;;5057707;28;20186;-73
2022/06/10 14:06:35;;;;;;;37.35;4.20;;;27.90;99.90;;;;;;5086353;28;20208;-73